createdAt,value
2019-05-18T00:01:48.900Z,4.90
2019-05-18T00:04:18.315Z,6.30
2019-05-18T00:06:48.024Z,4.67
2019-05-18T00:09:17.730Z,5.00
2019-05-18T00:11:49.131Z,5.03
2019-05-18T00:14:18.725Z,4.97
2019-05-18T00:16:48.400Z,5.08
2019-05-18T00:19:18.110Z,8.93
2019-05-18T00:21:47.818Z,6.05
2019-05-18T00:24:17.501Z,5.85
2019-05-18T00:26:48.160Z,6.87
2019-05-18T00:29:17.869Z,6.87
2019-05-18T00:31:47.481Z,5.00
2019-05-18T00:34:17.160Z,5.92
2019-05-18T00:36:46.796Z,9.10
2019-05-18T00:39:16.508Z,7.37
2019-05-18T00:41:46.194Z,6.40
2019-05-18T00:44:15.925Z,8.70
2019-05-18T00:46:45.609Z,6.97
2019-05-18T00:49:16.254Z,6.87
2019-05-18T00:51:46.958Z,8.30
2019-05-18T00:54:16.684Z,6.78
2019-05-18T00:56:48.196Z,8.70
2019-05-18T00:59:18.180Z,6.92
2019-05-18T01:01:47.892Z,8.83
2019-05-18T01:04:17.577Z,9.95
2019-05-18T01:06:47.284Z,11.55
2019-05-18T01:09:17.022Z,7.05
2019-05-18T01:11:48.442Z,7.45
2019-05-18T01:14:19.189Z,10.00
2019-05-18T01:16:48.818Z,6.75
2019-05-18T01:19:18.529Z,6.78
2019-05-18T01:21:48.233Z,6.67
2019-05-18T01:24:17.844Z,6.97
2019-05-18T01:26:47.551Z,6.05
2019-05-18T01:29:17.261Z,6.35
2019-05-18T01:31:46.973Z,7.67
2019-05-18T01:34:16.684Z,6.78
2019-05-18T01:36:46.263Z,9.85
2019-05-18T01:39:15.982Z,6.53
2019-05-18T01:41:47.414Z,7.53
2019-05-18T01:44:17.058Z,6.70
2019-05-18T01:46:46.768Z,6.70
2019-05-18T01:49:16.480Z,9.20
2019-05-18T01:51:46.193Z,7.17
2019-05-18T01:54:15.874Z,7.83
2019-05-18T01:56:45.579Z,5.60
2019-05-18T01:59:15.220Z,8.60
2019-05-18T02:01:44.927Z,9.63
2019-05-18T02:04:14.535Z,9.33
2019-05-18T02:06:44.246Z,9.90
2019-05-18T02:09:13.959Z,7.30
2019-05-18T02:11:43.665Z,8.45
2019-05-18T02:14:13.349Z,8.38
2019-05-18T02:16:44.100Z,8.03
2019-05-18T02:19:13.819Z,7.42
2019-05-18T02:21:43.531Z,5.87
2019-05-18T02:24:13.243Z,6.42
2019-05-18T02:26:42.848Z,7.42
2019-05-18T02:29:14.343Z,6.75
2019-05-18T02:31:44.009Z,5.95
2019-05-18T02:34:13.696Z,6.78
2019-05-18T02:36:44.382Z,7.87
2019-05-18T02:39:14.107Z,8.35
2019-05-18T02:41:43.882Z,13.15
2019-05-18T02:44:13.556Z,7.95
2019-05-18T02:46:43.196Z,8.20
2019-05-18T02:49:12.798Z,7.67
2019-05-18T02:51:42.511Z,8.60
2019-05-18T02:54:12.234Z,6.55
2019-05-18T02:56:41.909Z,7.50
2019-05-18T02:59:11.531Z,7.67
2019-05-18T03:01:41.272Z,7.37
2019-05-18T03:04:10.962Z,9.30
2019-05-18T03:06:40.646Z,9.70
2019-05-18T03:09:10.380Z,7.95
2019-05-18T03:11:40.089Z,7.37
2019-05-18T03:14:10.420Z,8.80
2019-05-18T03:16:41.858Z,6.85
2019-05-18T03:19:11.476Z,5.47
2019-05-18T03:21:41.183Z,8.40
2019-05-18T03:24:11.768Z,6.08
2019-05-18T03:26:41.524Z,6.37
2019-05-18T03:29:11.138Z,6.70
2019-05-18T03:31:40.864Z,7.10
2019-05-18T03:34:11.774Z,7.30
2019-05-18T03:36:43.296Z,8.28
2019-05-18T03:39:12.865Z,6.00
2019-05-18T03:41:42.554Z,7.15
2019-05-18T03:44:12.261Z,5.80
2019-05-18T03:46:41.869Z,5.72
2019-05-18T03:49:25.393Z,5.50
2019-05-18T03:51:42.828Z,5.93
2019-05-18T03:54:15.271Z,5.83
2019-05-18T03:56:44.910Z,5.77
2019-05-18T03:59:14.617Z,6.20
2019-05-18T04:01:44.196Z,6.40
2019-05-18T04:04:17.818Z,6.08
2019-05-18T04:06:46.138Z,5.07
2019-05-18T04:09:15.894Z,5.50
2019-05-18T04:11:45.524Z,6.65
2019-05-18T04:14:15.234Z,6.78
2019-05-18T04:16:45.765Z,5.50
2019-05-18T04:19:15.473Z,6.05
2019-05-18T04:21:45.157Z,6.25
2019-05-18T04:24:14.893Z,6.17
2019-05-18T04:26:44.604Z,7.28
2019-05-18T04:29:14.284Z,7.35
2019-05-18T04:31:45.020Z,5.22
2019-05-18T04:34:14.656Z,7.45
2019-05-18T04:36:44.343Z,5.90
2019-05-18T04:39:14.077Z,5.65
2019-05-18T04:41:43.789Z,7.50
2019-05-18T04:44:13.503Z,6.65
2019-05-18T04:46:44.987Z,7.00
2019-05-18T04:49:14.629Z,9.08
2019-05-18T04:51:44.339Z,7.97
2019-05-18T04:54:14.080Z,5.95
2019-05-18T04:56:43.762Z,6.67
2019-05-18T04:59:13.499Z,6.33
2019-05-18T05:01:43.353Z,6.62
2019-05-18T05:04:13.125Z,6.45
2019-05-18T05:06:42.833Z,5.58
2019-05-18T05:09:12.515Z,5.65
2019-05-18T05:11:42.257Z,5.37
2019-05-18T05:14:11.934Z,4.58
2019-05-18T05:16:41.694Z,5.35
2019-05-18T05:19:11.385Z,4.92
2019-05-18T05:21:40.992Z,5.35
2019-05-18T05:24:11.744Z,5.85
2019-05-18T05:26:41.437Z,5.28
2019-05-18T05:29:11.146Z,6.45
2019-05-18T05:31:40.860Z,6.40
2019-05-18T05:34:11.547Z,6.60
2019-05-18T05:36:41.356Z,5.85
2019-05-18T05:39:11.114Z,8.05
2019-05-18T05:41:40.795Z,7.67
2019-05-18T05:44:10.554Z,6.65
2019-05-18T05:46:40.424Z,7.47
2019-05-18T05:49:10.058Z,7.42
2019-05-18T05:51:40.791Z,7.47
2019-05-18T05:54:10.477Z,7.05
2019-05-18T05:56:41.180Z,6.67
2019-05-18T05:59:10.844Z,9.10
2019-05-18T06:01:40.524Z,7.47
2019-05-18T06:04:10.159Z,7.97
2019-05-18T06:06:39.873Z,9.58
2019-05-18T06:09:09.585Z,8.15
2019-05-18T06:11:39.298Z,8.08
2019-05-18T06:14:08.863Z,7.92
2019-05-18T06:16:38.613Z,8.28
2019-05-18T06:19:09.242Z,8.60
2019-05-18T06:21:38.923Z,7.67
2019-05-18T06:24:08.688Z,8.35
2019-05-18T06:26:38.371Z,8.15
2019-05-18T06:29:08.082Z,8.98
2019-05-18T06:31:37.791Z,8.65
2019-05-18T06:34:07.512Z,9.38
2019-05-18T06:36:37.211Z,7.95
2019-05-18T06:39:07.618Z,8.08
2019-05-18T06:41:37.325Z,7.83
2019-05-18T06:44:06.955Z,7.70
2019-05-18T06:46:36.640Z,7.65
2019-05-18T06:49:06.377Z,7.25
2019-05-18T06:51:35.985Z,7.25
2019-05-18T06:54:06.701Z,7.30
2019-05-18T06:56:37.453Z,7.95
2019-05-18T06:59:07.164Z,6.78
2019-05-18T07:01:36.876Z,7.25
2019-05-18T07:04:06.555Z,9.43
2019-05-18T07:06:36.306Z,6.83
2019-05-18T07:09:12.950Z,7.42
2019-05-18T07:11:38.377Z,7.00
2019-05-18T07:14:08.087Z,6.80
2019-05-18T07:16:37.801Z,7.58
2019-05-18T07:19:07.405Z,7.10
2019-05-18T07:21:38.974Z,6.25
2019-05-18T07:24:10.192Z,8.57
2019-05-18T07:26:39.814Z,11.37
2019-05-18T07:29:09.420Z,8.63
2019-05-18T07:31:39.131Z,6.53
2019-05-18T07:34:08.739Z,6.75
2019-05-18T07:36:38.419Z,8.90
2019-05-18T07:39:08.261Z,6.92
2019-05-18T07:41:46.209Z,6.72
2019-05-18T07:44:28.748Z,7.00
2019-05-18T07:46:58.458Z,7.90
2019-05-18T07:49:28.199Z,8.13
2019-05-18T07:51:57.881Z,7.22
2019-05-18T07:54:27.614Z,8.58
2019-05-18T07:56:57.328Z,6.92
2019-05-18T07:59:26.939Z,7.17
2019-05-18T08:01:56.615Z,6.92
2019-05-18T08:04:26.327Z,6.47
2019-05-18T08:06:56.065Z,7.28
2019-05-18T08:09:26.759Z,7.72
2019-05-18T08:11:56.379Z,6.92
2019-05-18T08:14:26.120Z,6.67
2019-05-18T08:16:55.800Z,6.35
2019-05-18T08:19:25.538Z,6.45
2019-05-18T08:21:55.219Z,6.10
2019-05-18T08:24:26.232Z,10.30
2019-05-18T08:26:55.897Z,7.55
2019-05-18T08:29:25.607Z,6.75
2019-05-18T08:31:55.320Z,7.83
2019-05-18T08:34:24.998Z,9.05
2019-05-18T08:36:55.761Z,7.03
2019-05-18T08:39:25.490Z,7.62
2019-05-18T08:41:55.182Z,7.87
2019-05-18T08:44:24.892Z,7.28
2019-05-18T08:46:54.603Z,10.58
2019-05-18T08:49:26.238Z,12.28
2019-05-18T08:52:07.453Z,7.50
2019-05-18T08:54:26.881Z,7.13
2019-05-18T08:56:56.616Z,7.28
2019-05-18T08:59:26.355Z,8.30
2019-05-18T09:01:56.037Z,7.62
2019-05-18T09:04:25.752Z,7.50
2019-05-18T09:06:55.457Z,8.80
2019-05-18T09:09:25.026Z,7.55
2019-05-18T09:11:54.676Z,7.87
2019-05-18T09:14:24.354Z,7.50
2019-05-18T09:16:54.094Z,8.10
2019-05-18T09:19:24.808Z,9.68
2019-05-18T09:21:54.514Z,8.63
2019-05-18T09:24:24.248Z,8.48
2019-05-18T09:26:53.823Z,8.20
2019-05-18T09:29:23.575Z,7.90
2019-05-18T09:31:53.247Z,8.08
2019-05-18T09:34:22.987Z,8.65
2019-05-18T09:36:52.741Z,10.90
2019-05-18T09:39:22.610Z,7.72
2019-05-18T09:41:52.294Z,8.40
2019-05-18T09:44:22.019Z,9.65
2019-05-18T09:46:51.714Z,7.08
2019-05-18T09:49:21.452Z,8.23
2019-05-18T09:51:51.163Z,9.18
2019-05-18T09:54:22.141Z,8.18
2019-05-18T09:56:53.663Z,6.85
2019-05-18T09:59:23.366Z,8.38
2019-05-18T10:01:53.047Z,7.95
2019-05-18T10:04:22.760Z,7.75
2019-05-18T10:06:52.467Z,9.70
2019-05-18T10:09:22.213Z,8.43
2019-05-18T10:11:51.829Z,9.45
2019-05-18T10:14:23.233Z,11.55
2019-05-18T10:16:52.976Z,10.78
2019-05-18T10:19:22.787Z,12.18
2019-05-18T10:21:52.471Z,13.60
2019-05-18T10:24:22.208Z,13.15
2019-05-18T10:26:51.918Z,15.88
2019-05-18T10:29:21.628Z,11.63
2019-05-18T10:31:51.312Z,14.20
2019-05-18T10:34:21.051Z,10.23
2019-05-18T10:36:50.759Z,12.53
2019-05-18T10:39:20.444Z,11.45
2019-05-18T10:41:50.191Z,11.85
2019-05-18T10:44:21.601Z,10.53
2019-05-18T10:46:51.214Z,8.93
2019-05-18T10:49:20.949Z,10.60
2019-05-18T10:51:50.631Z,12.35
2019-05-18T10:54:20.343Z,12.63
2019-05-18T10:56:50.080Z,9.50
2019-05-18T10:59:19.790Z,8.83
2019-05-18T11:01:49.471Z,10.48
2019-05-18T11:04:19.208Z,11.10
2019-05-18T11:06:48.920Z,11.45
2019-05-18T11:09:18.671Z,13.83
2019-05-18T11:11:48.547Z,13.18
2019-05-18T11:14:18.962Z,11.75
2019-05-18T11:16:48.785Z,11.50
2019-05-18T11:19:18.469Z,11.05
2019-05-18T11:21:48.209Z,13.78
2019-05-18T11:24:19.630Z,9.83
2019-05-18T11:26:49.264Z,10.55
2019-05-18T11:29:22.778Z,9.65
2019-05-18T11:31:50.299Z,5.47
2019-05-18T11:34:20.005Z,4.05
2019-05-18T11:36:49.756Z,3.83
2019-05-18T11:39:19.422Z,3.37
2019-05-18T11:41:49.163Z,4.83
2019-05-18T11:44:18.842Z,6.95
2019-05-18T11:46:48.588Z,4.87
2019-05-18T11:49:18.293Z,4.37
2019-05-18T11:51:48.007Z,7.12
2019-05-18T11:54:17.713Z,6.78
2019-05-18T11:56:47.429Z,10.28
2019-05-18T11:59:17.166Z,6.85
2019-05-18T12:01:48.577Z,5.97
2019-05-18T12:04:18.199Z,5.15
2019-05-18T12:06:47.882Z,5.50
2019-05-18T12:09:17.614Z,6.60
2019-05-18T12:11:47.219Z,9.00
2019-05-18T12:14:16.933Z,4.00
2019-05-18T12:16:46.614Z,6.05
2019-05-18T12:19:16.349Z,5.00
2019-05-18T12:21:46.060Z,6.40
2019-05-18T12:24:16.137Z,5.28
2019-05-18T12:26:45.966Z,4.40
2019-05-18T12:29:15.677Z,7.12
2019-05-18T12:31:45.413Z,4.90
2019-05-18T12:34:16.085Z,5.47
2019-05-18T12:36:45.730Z,5.20
2019-05-18T12:39:15.437Z,5.47
2019-05-18T12:41:45.079Z,8.75
2019-05-18T12:44:14.655Z,5.90
2019-05-18T12:46:45.433Z,5.92
2019-05-18T12:49:15.134Z,4.58
2019-05-18T12:51:45.796Z,6.35
2019-05-18T12:54:28.768Z,4.97
2019-05-18T12:56:48.693Z,5.28
2019-05-18T12:59:18.062Z,2.98
2019-05-18T13:01:47.772Z,2.22
2019-05-18T13:04:17.482Z,4.28
2019-05-18T13:06:47.192Z,4.70
2019-05-18T13:09:17.943Z,4.75
2019-05-18T13:11:47.741Z,3.33
2019-05-18T13:14:17.449Z,3.33
2019-05-18T13:16:47.131Z,4.08
2019-05-18T13:19:16.872Z,5.00
2019-05-18T13:21:46.582Z,3.05
2019-05-18T13:24:16.289Z,5.67
2019-05-18T13:26:46.187Z,4.22
2019-05-18T13:29:15.921Z,2.50
2019-05-18T13:31:45.625Z,3.55
2019-05-18T13:34:15.309Z,4.55
2019-05-18T13:36:45.045Z,1.55
2019-05-18T13:39:14.728Z,1.35
2019-05-18T13:41:45.412Z,1.95
2019-05-18T13:44:15.200Z,2.17
2019-05-18T13:46:46.836Z,5.53
2019-05-18T13:49:16.231Z,4.37
2019-05-18T13:51:45.939Z,3.12
2019-05-18T13:54:15.683Z,1.77
2019-05-18T13:56:45.401Z,2.80
2019-05-18T13:59:15.075Z,1.80
2019-05-18T14:01:45.703Z,2.00
2019-05-18T14:04:15.441Z,1.90
2019-05-18T14:06:45.159Z,5.25
2019-05-18T14:09:14.862Z,1.75
2019-05-18T14:11:44.572Z,2.75
2019-05-18T14:14:15.229Z,3.45
2019-05-18T14:16:44.914Z,3.83
2019-05-18T14:19:14.630Z,3.20
2019-05-18T14:21:44.338Z,4.20
2019-05-18T14:24:14.047Z,1.22
2019-05-18T14:26:43.858Z,1.50
2019-05-18T14:29:14.625Z,2.77
2019-05-18T14:31:44.413Z,2.17
2019-05-18T14:34:14.119Z,0.80
2019-05-18T14:36:43.795Z,1.17
2019-05-18T14:39:13.535Z,1.65
2019-05-18T14:41:43.244Z,5.62
2019-05-18T14:44:14.651Z,3.35
2019-05-18T14:46:44.450Z,3.12
2019-05-18T14:49:14.220Z,6.42
2019-05-18T14:51:43.928Z,8.13
2019-05-18T14:54:14.562Z,1.87
2019-05-18T14:56:44.239Z,1.30
2019-05-18T14:59:13.980Z,2.40
2019-05-18T15:01:44.642Z,3.22
2019-05-18T15:04:14.423Z,2.47
2019-05-18T15:06:46.062Z,3.05
2019-05-18T15:09:15.456Z,3.65
2019-05-18T15:11:45.193Z,4.42
2019-05-18T15:14:16.194Z,1.60
2019-05-18T15:16:45.843Z,2.00
2019-05-18T15:19:15.556Z,1.60
2019-05-18T15:21:46.508Z,3.62
2019-05-18T15:24:16.303Z,2.80
2019-05-18T15:26:45.883Z,2.42
2019-05-18T15:29:15.636Z,3.08
2019-05-18T15:31:45.311Z,1.65
2019-05-18T15:34:15.043Z,1.67
2019-05-18T15:36:46.776Z,1.22
2019-05-18T15:39:16.484Z,1.80
2019-05-18T15:41:46.195Z,1.90
2019-05-18T15:44:15.905Z,3.40
2019-05-18T15:46:45.648Z,1.72
2019-05-18T15:49:16.332Z,2.37
2019-05-18T15:51:47.882Z,1.05
2019-05-18T15:54:17.240Z,3.72
2019-05-18T15:56:47.935Z,3.33
2019-05-18T15:59:17.673Z,1.42
2019-05-18T16:01:47.283Z,3.00
2019-05-18T16:04:16.967Z,1.27
2019-05-18T16:06:46.704Z,1.80
2019-05-18T16:09:16.383Z,1.17
2019-05-18T16:11:46.124Z,2.47
2019-05-18T16:14:15.805Z,1.60
2019-05-18T16:16:45.516Z,1.45
2019-05-18T16:19:15.257Z,1.95
2019-05-18T16:21:45.922Z,3.25
2019-05-18T16:24:16.700Z,3.22
2019-05-18T16:26:46.430Z,1.75
2019-05-18T16:29:18.046Z,1.75
2019-05-18T16:31:47.492Z,2.22
2019-05-18T16:34:17.176Z,2.15
2019-05-18T16:36:46.910Z,1.40
2019-05-18T16:39:16.592Z,3.47
2019-05-18T16:41:46.331Z,2.92
2019-05-18T16:44:16.040Z,2.30
2019-05-18T16:46:47.580Z,2.65
2019-05-18T16:49:17.001Z,3.33
2019-05-18T16:51:47.639Z,4.17
2019-05-18T16:54:17.244Z,1.72
2019-05-18T16:56:46.947Z,1.45
2019-05-18T16:59:16.631Z,3.17
2019-05-18T17:01:46.266Z,1.42
2019-05-18T17:04:15.974Z,4.30
2019-05-18T17:06:45.686Z,1.40
2019-05-18T17:09:15.394Z,2.00
2019-05-18T17:11:47.857Z,2.33
2019-05-18T17:14:17.409Z,1.50
2019-05-18T17:16:47.085Z,4.42
2019-05-18T17:19:18.819Z,1.70
2019-05-18T17:21:48.454Z,2.90
2019-05-18T17:24:18.164Z,3.02
2019-05-18T17:26:52.805Z,6.50
2019-05-18T17:29:20.977Z,3.47
2019-05-18T17:31:50.439Z,2.07
2019-05-18T17:34:20.147Z,3.60
2019-05-18T17:36:52.569Z,3.60
2019-05-18T17:39:21.133Z,3.50
2019-05-18T17:41:50.827Z,1.50
2019-05-18T17:44:20.553Z,1.40
2019-05-18T17:46:50.264Z,4.92
2019-05-18T17:49:26.927Z,2.08
2019-05-18T17:51:51.220Z,3.30
2019-05-18T17:54:22.635Z,2.58
2019-05-18T17:57:07.237Z,2.47
2019-05-18T17:59:23.629Z,2.17
2019-05-18T18:01:53.339Z,3.85
2019-05-18T18:04:23.969Z,4.67
2019-05-18T18:06:53.682Z,3.50
2019-05-18T18:09:23.363Z,3.37
2019-05-18T18:11:53.101Z,2.45
2019-05-18T18:14:22.787Z,5.00
2019-05-18T18:16:52.496Z,2.37
2019-05-18T18:19:22.307Z,2.90
2019-05-18T18:21:51.943Z,4.40
2019-05-18T18:24:21.627Z,5.45
2019-05-18T18:26:52.334Z,1.98
2019-05-18T18:29:22.068Z,2.40
2019-05-18T18:31:51.786Z,3.20
2019-05-18T18:34:21.495Z,3.25
2019-05-18T18:36:51.228Z,3.75
2019-05-18T18:39:20.935Z,3.12
2019-05-18T18:41:50.646Z,5.15
2019-05-18T18:44:20.357Z,2.83
2019-05-18T18:46:49.984Z,3.27
2019-05-18T18:49:19.782Z,2.20
2019-05-18T18:51:49.387Z,8.35
2019-05-18T18:54:21.023Z,3.77
2019-05-18T18:56:50.340Z,6.83
2019-05-18T18:59:20.053Z,2.37
2019-05-18T19:01:49.762Z,5.33
2019-05-18T19:04:19.472Z,7.17
2019-05-18T19:06:49.188Z,5.37
2019-05-18T19:09:18.869Z,3.60
2019-05-18T19:11:48.470Z,5.28
2019-05-18T19:14:18.210Z,2.95
2019-05-18T19:16:47.919Z,3.80
2019-05-18T19:19:17.629Z,3.52
2019-05-18T19:21:47.312Z,3.72
2019-05-18T19:24:17.049Z,4.05
2019-05-18T19:26:46.764Z,3.42
2019-05-18T19:29:16.472Z,2.77
2019-05-18T19:31:46.162Z,4.53
2019-05-18T19:34:16.896Z,5.35
2019-05-18T19:36:46.627Z,2.60
2019-05-18T19:39:18.037Z,5.92
2019-05-18T19:41:47.687Z,4.73
2019-05-18T19:44:17.397Z,4.25
2019-05-18T19:46:47.104Z,7.45
2019-05-18T19:49:16.817Z,5.22
2019-05-18T19:51:46.451Z,3.60
2019-05-18T19:54:16.196Z,4.65
2019-05-18T19:56:46.130Z,7.00
2019-05-18T19:59:16.022Z,3.15
2019-05-18T20:01:45.700Z,3.25
2019-05-18T20:04:15.440Z,4.75
2019-05-18T20:06:45.150Z,4.62
2019-05-18T20:09:14.835Z,5.17
2019-05-18T20:11:44.569Z,6.08
2019-05-18T20:14:15.304Z,3.55
2019-05-18T20:16:45.037Z,5.53
2019-05-18T20:19:14.724Z,3.12
2019-05-18T20:21:46.165Z,4.40
2019-05-18T20:24:15.885Z,6.90
2019-05-18T20:26:45.494Z,2.83
2019-05-18T20:29:15.204Z,3.87
2019-05-18T20:31:44.887Z,4.47
2019-05-18T20:34:14.595Z,2.72
2019-05-18T20:36:44.334Z,5.15
2019-05-18T20:39:14.018Z,4.90
2019-05-18T20:41:43.758Z,5.80
2019-05-18T20:44:13.464Z,3.90
2019-05-18T20:46:44.115Z,2.80
2019-05-18T20:49:13.811Z,4.08
2019-05-18T20:51:43.520Z,4.72
2019-05-18T20:54:13.225Z,3.75
2019-05-18T20:56:42.910Z,6.37
2019-05-18T20:59:12.647Z,3.15
2019-05-18T21:01:42.356Z,2.62
2019-05-18T21:04:12.990Z,12.20
2019-05-18T21:06:45.425Z,4.50
2019-05-18T21:09:13.947Z,4.80
2019-05-18T21:11:45.346Z,3.15
2019-05-18T21:14:16.712Z,6.07
2019-05-18T21:16:47.478Z,3.30
2019-05-18T21:19:17.085Z,3.85
2019-05-18T21:21:46.767Z,5.03
2019-05-18T21:24:16.508Z,3.58
2019-05-18T21:26:46.187Z,4.65
2019-05-18T21:29:17.852Z,5.12
2019-05-18T21:31:48.255Z,2.67
2019-05-18T21:34:18.963Z,6.12
2019-05-18T21:36:48.919Z,4.03
2019-05-18T21:39:18.657Z,4.03
2019-05-18T21:41:48.266Z,7.25
2019-05-18T21:44:19.708Z,4.85
2019-05-18T21:46:49.297Z,5.70
2019-05-18T21:49:19.034Z,3.83
2019-05-18T21:51:48.723Z,3.42
2019-05-18T21:54:18.453Z,3.12
2019-05-18T21:56:48.165Z,7.00
2019-05-18T21:59:17.876Z,6.30
2019-05-18T22:01:49.282Z,3.85
2019-05-18T22:04:19.137Z,5.17
2019-05-18T22:06:48.749Z,4.30
2019-05-18T22:09:18.457Z,6.12
2019-05-18T22:11:49.930Z,5.62
2019-05-18T22:14:19.415Z,5.85
2019-05-18T22:16:49.125Z,6.00
2019-05-18T22:19:19.752Z,4.90
2019-05-18T22:21:49.468Z,4.70
2019-05-18T22:24:19.173Z,5.35
2019-05-18T22:26:48.856Z,5.28
2019-05-18T22:29:18.595Z,5.50
2019-05-18T22:31:48.275Z,5.97
2019-05-18T22:34:19.714Z,5.70
2019-05-18T22:36:49.341Z,10.03
2019-05-18T22:39:19.076Z,6.00
2019-05-18T22:41:48.783Z,5.80
2019-05-18T22:44:18.494Z,4.45
2019-05-18T22:46:48.215Z,7.47
2019-05-18T22:49:18.835Z,9.18
2019-05-18T22:51:48.545Z,5.50
2019-05-18T22:54:18.235Z,9.35
2019-05-18T22:56:47.965Z,6.08
2019-05-18T22:59:17.573Z,5.83
2019-05-18T23:01:47.255Z,7.05
2019-05-18T23:04:16.966Z,4.97
2019-05-18T23:06:46.703Z,4.83
2019-05-18T23:09:16.416Z,5.97
2019-05-18T23:11:46.123Z,6.12
2019-05-18T23:14:15.859Z,5.75
2019-05-18T23:16:45.516Z,6.00
2019-05-18T23:19:15.257Z,5.83
2019-05-18T23:21:44.939Z,5.03
2019-05-18T23:24:14.722Z,9.18
2019-05-18T23:26:44.488Z,6.80
2019-05-18T23:29:14.196Z,5.12
2019-05-18T23:31:43.910Z,7.90
2019-05-18T23:34:13.619Z,6.58
2019-05-18T23:36:45.019Z,6.12
2019-05-18T23:39:14.778Z,9.57
2019-05-18T23:41:44.487Z,5.40
2019-05-18T23:44:14.199Z,6.58
2019-05-18T23:46:43.909Z,5.25
2019-05-18T23:49:13.618Z,5.20
2019-05-18T23:51:43.329Z,6.37
2019-05-18T23:54:12.936Z,5.37
2019-05-18T23:56:42.647Z,5.83
2019-05-18T23:59:12.358Z,5.65
